Time;durP1;ratioP1;P1;durP2;ratioP2;P2;SDS_P1;SDS_P2;PMS_P1;PMS_P2;Temp;Humidity;BMP_temperature;BMP_pressure;BME280_temperature;BME280_humidity;BME280_pressure;Samples;Min_cycle;Max_cycle;Signal;HPM_P1;HPM_P2
2020/03/28 00:01:58;;;;;;;17.7;11.4;;;;;;;4.99;74.96289;935.5359;;;;
2020/03/28 00:04:23;;;;;;;17.2;10.7;;;;;;;4.95;75.06934;935.6312;;;;
2020/03/28 00:06:48;;;;;;;18.4;11.5;;;;;;;4.97;74.86914;935.5497;;;;
2020/03/28 00:09:13;;;;;;;20.2;12.6;;;;;;;4.92;75.62793;935.5997;;;;
2020/03/28 00:11:43;;;;;;;18;12.7;;;;;;;4.9;75.72656;935.5976;;;;
2020/03/28 00:14:06;;;;;;;18.6;12.5;;;;;;;4.93;75.12207;935.6007;;;;
2020/03/28 00:16:28;;;;;;;19.9;12.1;;;;;;;4.88;75.1709;935.62;;;;
2020/03/28 00:18:54;;;;;;;19.9;12.3;;;;;;;4.91;75.50195;935.6326;;;;
2020/03/28 00:21:19;;;;;;;19.6;12.3;;;;;;;4.9;74.99414;935.6828;;;;
2020/03/28 00:23:44;;;;;;;25.2;13.1;;;;;;;4.92;74.7041;935.5547;;;;
2020/03/28 00:26:09;;;;;;;22.8;14;;;;;;;4.84;74.73438;935.6378;;;;
2020/03/28 00:28:34;;;;;;;19.5;13.7;;;;;;;4.82;74.93457;935.6822;;;;
2020/03/28 00:30:59;;;;;;;22.9;15.8;;;;;;;4.75;75.21582;935.6794;;;;
2020/03/28 00:33:24;;;;;;;21.5;14.6;;;;;;;4.68;75.40625;935.6839;;;;
2020/03/28 00:35:49;;;;;;;23.1;15.6;;;;;;;4.7;75.51074;935.7096;;;;
2020/03/28 00:38:15;;;;;;;24.7;14.2;;;;;;;4.71;75.30957;935.7366;;;;
2020/03/28 00:40:40;;;;;;;30.5;16;;;;;;;4.72;75.37988;935.6534;;;;
2020/03/28 00:43:05;;;;;;;32.1;18;;;;;;;4.62;75.54102;935.6531;;;;
2020/03/28 00:45:30;;;;;;;26.9;15.3;;;;;;;4.73;75.30176;935.6928;;;;
2020/03/28 00:47:55;;;;;;;18.6;11.2;;;;;;;4.62;75.125;935.6791;;;;
2020/03/28 00:50:20;;;;;;;16;10.8;;;;;;;4.55;75.22461;935.6761;;;;
2020/03/28 00:52:45;;;;;;;19.4;11.2;;;;;;;4.55;75.28223;935.6959;;;;
2020/03/28 00:55:10;;;;;;;17.2;11.8;;;;;;;4.45;75.36426;935.6605;;;;
2020/03/28 00:57:35;;;;;;;21.9;12.7;;;;;;;4.36;75.87891;935.6949;;;;
2020/03/28 01:00:03;;;;;;;16.3;11.6;;;;;;;4.37;75.39551;935.714;;;;
2020/03/28 01:02:25;;;;;;;18.7;12.1;;;;;;;4.39;75.21875;935.7808;;;;
2020/03/28 01:04:51;;;;;;;20.9;11.9;;;;;;;4.37;74.94531;935.7693;;;;
2020/03/28 01:07:16;;;;;;;21.3;12.4;;;;;;;4.35;75.57031;935.8505;;;;
2020/03/28 01:09:41;;;;;;;21.1;12.6;;;;;;;4.32;75.5;935.8073;;;;
2020/03/28 01:12:06;;;;;;;21.6;13.2;;;;;;;4.19;75.72363;935.8653;;;;
2020/03/28 01:14:31;;;;;;;19;13.5;;;;;;;4.02;76.04199;935.8005;;;;
2020/03/28 01:16:56;;;;;;;23.5;14.1;;;;;;;3.96;77.02148;935.8756;;;;
2020/03/28 01:19:21;;;;;;;20.4;13.1;;;;;;;3.98;77.08203;935.8788;;;;
2020/03/28 01:21:46;;;;;;;20.5;12.7;;;;;;;3.85;77.58594;935.7889;;;;
2020/03/28 01:24:12;;;;;;;17.7;12;;;;;;;3.88;77.61328;935.8904;;;;
2020/03/28 01:26:37;;;;;;;21.9;11.9;;;;;;;3.86;77.56543;935.8995;;;;
2020/03/28 01:29:02;;;;;;;17.1;11.3;;;;;;;3.83;77.59375;935.8599;;;;
2020/03/28 01:33:52;;;;;;;18;11.8;;;;;;;3.97;76.92383;935.8895;;;;
2020/03/28 01:36:17;;;;;;;17.8;11.2;;;;;;;3.89;77.1543;935.8837;;;;
2020/03/28 01:38:42;;;;;;;16.1;10.7;;;;;;;3.78;77.47168;935.8731;;;;
2020/03/28 01:41:07;;;;;;;17.4;11;;;;;;;3.58;78.88477;935.7957;;;;
2020/03/28 01:43:32;;;;;;;18.4;11.8;;;;;;;3.47;79.65137;935.8678;;;;
2020/03/28 01:45:57;;;;;;;18.9;12.5;;;;;;;3.56;79.43066;935.8492;;;;
2020/03/28 01:48:22;;;;;;;23.1;12.7;;;;;;;3.63;78.71387;935.8859;;;;
2020/03/28 01:50:48;;;;;;;20.4;12.6;;;;;;;3.7;78.11035;935.9133;;;;
2020/03/28 01:53:13;;;;;;;21.8;12.8;;;;;;;3.65;78.41504;935.8714;;;;
2020/03/28 01:55:38;;;;;;;23.3;14;;;;;;;3.53;79.17773;935.8706;;;;
2020/03/28 01:58:03;;;;;;;26.1;15.1;;;;;;;3.59;79.17871;935.8881;;;;
2020/03/28 02:00:28;;;;;;;29.3;16.9;;;;;;;3.62;79.06152;935.8691;;;;
2020/03/28 02:02:53;;;;;;;27.4;16.9;;;;;;;3.66;78.60645;935.8859;;;;
2020/03/28 02:05:18;;;;;;;26.6;15.8;;;;;;;3.68;78.75684;935.896;;;;
2020/03/28 02:07:44;;;;;;;23.6;14.9;;;;;;;3.78;78.21387;935.8825;;;;
2020/03/28 02:10:09;;;;;;;32.8;19.1;;;;;;;3.85;77.63086;935.8951;;;;
2020/03/28 02:12:34;;;;;;;32.3;18.4;;;;;;;3.84;76.86328;935.798;;;;
2020/03/28 02:14:59;;;;;;;28.2;16.7;;;;;;;3.92;76.34961;935.8681;;;;
2020/03/28 02:17:24;;;;;;;25.7;14.8;;;;;;;4.02;76.19922;935.8998;;;;
2020/03/28 02:19:49;;;;;;;25;13.8;;;;;;;3.97;75.91016;935.909;;;;
2020/03/28 02:22:14;;;;;;;24.1;15.1;;;;;;;3.93;75.8916;935.9291;;;;
2020/03/28 02:24:39;;;;;;;25.1;14.5;;;;;;;3.88;75.86133;935.9238;;;;
2020/03/28 02:27:04;;;;;;;23.6;13.3;;;;;;;3.89;75.75098;935.8887;;;;
2020/03/28 02:29:29;;;;;;;21.4;12.7;;;;;;;3.91;75.96777;935.8144;;;;
2020/03/28 02:31:55;;;;;;;20.3;12.9;;;;;;;3.91;76.38379;935.9183;;;;
2020/03/28 02:34:20;;;;;;;19.7;13.7;;;;;;;3.84;77.46094;935.9398;;;;
2020/03/28 02:36:45;;;;;;;22.1;12.5;;;;;;;3.78;77.4043;935.952;;;;
2020/03/28 02:39:17;;;;;;;20;13.3;;;;;;;3.73;76.83398;935.9149;;;;
2020/03/28 02:41:35;;;;;;;19.2;11.9;;;;;;;3.81;76.50977;935.9412;;;;
2020/03/28 02:44:00;;;;;;;20.1;11.5;;;;;;;3.85;76.22559;935.9567;;;;
2020/03/28 02:46:25;;;;;;;14.9;10.6;;;;;;;3.81;75.94824;935.9727;;;;
2020/03/28 02:48:50;;;;;;;16.8;10.9;;;;;;;3.64;76.52637;935.9146;;;;
2020/03/28 02:51:15;;;;;;;17.2;10.8;;;;;;;3.54;77.19141;936.0195;;;;
2020/03/28 02:53:40;;;;;;;19.4;11.3;;;;;;;3.54;76.83398;935.967;;;;
2020/03/28 02:56:05;;;;;;;19.8;11.6;;;;;;;3.57;77.10645;935.978;;;;
2020/03/28 02:58:31;;;;;;;19.3;12;;;;;;;3.56;78.10645;935.9252;;;;
2020/03/28 03:00:56;;;;;;;17.2;11.5;;;;;;;3.47;78.06543;935.9142;;;;
2020/03/28 03:03:21;;;;;;;17.9;11.8;;;;;;;3.37;78.72266;935.9196;;;;
2020/03/28 03:05:46;;;;;;;23.9;15.8;;;;;;;3.38;78.86914;935.9519;;;;
2020/03/28 03:08:11;;;;;;;26.2;17.1;;;;;;;3.31;78.95996;935.9294;;;;
2020/03/28 03:10:36;;;;;;;26.1;15.7;;;;;;;3.34;78.57031;935.9782;;;;
2020/03/28 03:13:01;;;;;;;19.7;14.2;;;;;;;3.4;77.99805;935.9016;;;;
2020/03/28 03:15:26;;;;;;;22.4;12.4;;;;;;;3.34;77.94336;935.9658;;;;
2020/03/28 03:17:51;;;;;;;18.1;12.1;;;;;;;3.37;77.54395;935.9147;;;;
2020/03/28 03:20:16;;;;;;;22.3;12.7;;;;;;;3.42;77.125;935.9835;;;;
2020/03/28 03:22:41;;;;;;;19.1;12;;;;;;;3.37;77.26367;936.0185;;;;
2020/03/28 03:25:07;;;;;;;19.9;11.5;;;;;;;3.3;77.83398;936.0627;;;;
2020/03/28 03:27:32;;;;;;;19.1;11.9;;;;;;;3.28;78.08887;936.0645;;;;
2020/03/28 03:29:57;;;;;;;18.4;11.7;;;;;;;3.29;78.01172;936.0608;;;;
2020/03/28 03:32:22;;;;;;;18;11.3;;;;;;;3.23;78.53906;936.0204;;;;
2020/03/28 03:34:47;;;;;;;18.3;12.1;;;;;;;3.22;78.22266;936.0272;;;;
2020/03/28 03:37:12;;;;;;;19.3;12.5;;;;;;;3.23;77.68555;935.9967;;;;
2020/03/28 03:39:38;;;;;;;17.2;11.9;;;;;;;3.16;78.91895;936.0303;;;;
2020/03/28 03:42:03;;;;;;;20.4;13;;;;;;;3.03;79.19824;935.9938;;;;
2020/03/28 03:44:28;;;;;;;21.3;12.8;;;;;;;3.08;78.68066;936.0656;;;;
2020/03/28 03:47:00;;;;;;;20.6;12.2;;;;;;;3.05;78.49414;935.9872;;;;
2020/03/28 03:49:18;;;;;;;18.1;11.2;;;;;;;2.97;79.32129;935.9498;;;;
2020/03/28 03:51:46;;;;;;;19.1;11.9;;;;;;;3;79.15723;935.9852;;;;
2020/03/28 03:54:08;;;;;;;18;11.9;;;;;;;2.9;79.20801;936.0567;;;;
2020/03/28 03:56:33;;;;;;;19.1;11.6;;;;;;;2.92;79.1875;936.0549;;;;
2020/03/28 03:58:58;;;;;;;18.6;11.4;;;;;;;2.91;79.17578;936.087;;;;
2020/03/28 04:02:30;;;;;;;22.6;11.9;;;;;;;2.72;80.11426;936.025;;;;
2020/03/28 04:04:55;;;;;;;21.6;13.2;;;;;;;2.56;80.73535;936.0153;;;;
2020/03/28 04:07:20;;;;;;;21.6;14.2;;;;;;;2.63;80.51367;936.0739;;;;
2020/03/28 04:09:45;;;;;;;23.1;14.2;;;;;;;2.66;80.40723;936.0684;;;;
2020/03/28 04:12:10;;;;;;;22.9;13.6;;;;;;;2.65;80.50586;936.0636;;;;
2020/03/28 04:14:35;;;;;;;21.8;12.9;;;;;;;2.77;80.16992;936.0731;;;;
2020/03/28 04:17:00;;;;;;;20.6;12.4;;;;;;;2.78;79.83691;936.1177;;;;
2020/03/28 04:19:26;;;;;;;22.2;12.8;;;;;;;2.88;79.40527;936.026;;;;
2020/03/28 04:21:51;;;;;;;18.4;12.6;;;;;;;2.95;79.10449;936.1121;;;;
2020/03/28 04:24:16;;;;;;;18;11.8;;;;;;;2.99;78.92188;936.1188;;;;
2020/03/28 04:26:41;;;;;;;20.4;12;;;;;;;2.96;78.91504;936.1207;;;;
2020/03/28 04:29:06;;;;;;;17.7;12;;;;;;;2.97;78.86133;936.1699;;;;
2020/03/28 04:31:31;;;;;;;16.5;11.5;;;;;;;2.95;79.16016;936.163;;;;
2020/03/28 04:33:56;;;;;;;20.6;11.8;;;;;;;2.93;79.15723;936.1261;;;;
2020/03/28 04:36:21;;;;;;;22.6;12.7;;;;;;;2.89;79.56543;936.1679;;;;
2020/03/28 04:38:47;;;;;;;19.7;12.2;;;;;;;2.95;79.27051;936.1675;;;;
2020/03/28 04:41:12;;;;;;;18.7;11.5;;;;;;;3.01;78.3291;936.1511;;;;
2020/03/28 04:43:37;;;;;;;19.5;11.3;;;;;;;2.93;78.75293;936.1663;;;;
2020/03/28 04:46:02;;;;;;;20.8;11.3;;;;;;;2.9;79.27539;936.1111;;;;
2020/03/28 04:48:27;;;;;;;18.6;11.8;;;;;;;2.95;78.67773;936.2046;;;;
2020/03/28 04:50:52;;;;;;;18.8;11;;;;;;;3.05;77.6416;936.2753;;;;
2020/03/28 04:53:17;;;;;;;17.1;10.9;;;;;;;2.98;77.96484;936.2866;;;;
2020/03/28 04:55:42;;;;;;;20.5;11.2;;;;;;;2.84;78.60156;936.2693;;;;
2020/03/28 04:58:07;;;;;;;16.5;11.1;;;;;;;2.7;79.44043;936.3381;;;;
2020/03/28 05:00:32;;;;;;;17.2;10.8;;;;;;;2.6;79.91309;936.2547;;;;
2020/03/28 05:02:58;;;;;;;18.9;11.5;;;;;;;2.44;81.06055;936.3442;;;;
2020/03/28 05:05:23;;;;;;;19.5;12.1;;;;;;;2.44;81.02734;936.3599;;;;
2020/03/28 05:07:48;;;;;;;18.4;11.7;;;;;;;2.55;80.39746;936.3967;;;;
2020/03/28 05:10:13;;;;;;;19.9;11.1;;;;;;;2.68;79.76172;936.3923;;;;
2020/03/28 05:12:38;;;;;;;17.3;10.8;;;;;;;2.57;80.40137;936.4108;;;;
2020/03/28 05:15:03;;;;;;;17.6;11;;;;;;;2.66;80.14941;936.4417;;;;
2020/03/28 05:17:29;;;;;;;19.1;11.4;;;;;;;2.72;79.67676;936.4825;;;;
2020/03/28 05:19:54;;;;;;;14.9;10.8;;;;;;;2.84;78.80371;936.4723;;;;
2020/03/28 05:22:19;;;;;;;16.9;11;;;;;;;2.92;78.45801;936.5731;;;;
2020/03/28 05:24:44;;;;;;;15.7;11.4;;;;;;;3.02;78.34375;936.5834;;;;
2020/03/28 05:27:09;;;;;;;21.5;11.9;;;;;;;3.09;77.87402;936.4875;;;;
2020/03/28 05:29:34;;;;;;;19.3;11.1;;;;;;;3.27;77.11035;936.5952;;;;
2020/03/28 05:31:59;;;;;;;20.7;10.4;;;;;;;3.26;76.69141;936.5861;;;;
2020/03/28 05:34:24;;;;;;;19.8;10.4;;;;;;;3.27;76.31348;936.6142;;;;
2020/03/28 05:36:49;;;;;;;16;10.3;;;;;;;3.33;75.9082;936.5964;;;;
2020/03/28 05:39:15;;;;;;;19.4;10.5;;;;;;;3.33;75.8291;936.6728;;;;
2020/03/28 05:41:40;;;;;;;16.4;10.8;;;;;;;3.47;75.47168;936.6997;;;;
2020/03/28 05:44:05;;;;;;;17.5;9.3;;;;;;;3.51;75.18945;936.7336;;;;
2020/03/28 05:46:30;;;;;;;14.7;9.3;;;;;;;3.49;75.22949;936.7202;;;;
2020/03/28 05:48:55;;;;;;;15.3;8.9;;;;;;;3.59;74.90039;936.7621;;;;
2020/03/28 05:51:20;;;;;;;14.6;8.5;;;;;;;3.77;74.99609;936.7271;;;;
2020/03/28 05:53:45;;;;;;;11.5;7.8;;;;;;;4.1;74.37988;936.82;;;;
2020/03/28 05:56:10;;;;;;;12.9;7.5;;;;;;;4.64;71.77344;936.827;;;;
2020/03/28 05:58:36;;;;;;;15.9;7.6;;;;;;;5.33;69.16992;936.8083;;;;
2020/03/28 06:01:00;;;;;;;13.5;8.1;;;;;;;5.85;67.02832;936.8176;;;;
2020/03/28 06:03:26;;;;;;;11.6;8.2;;;;;;;6.03;66.05176;936.8344;;;;
2020/03/28 06:05:51;;;;;;;14.7;8.2;;;;;;;6.73;63.9873;936.7863;;;;
2020/03/28 06:08:16;;;;;;;15.1;8.3;;;;;;;7.31;61.85254;936.8035;;;;
2020/03/28 06:10:41;;;;;;;14.5;9;;;;;;;8.02;59.41211;936.7888;;;;
2020/03/28 06:13:06;;;;;;;16;10.3;;;;;;;8.64;57.31641;936.8264;;;;
2020/03/28 06:15:31;;;;;;;13.6;9;;;;;;;9.28;55.3291;936.834;;;;
2020/03/28 06:17:56;;;;;;;14.7;8.1;;;;;;;9.85;53.62402;936.8394;;;;
2020/03/28 06:20:21;;;;;;;14.1;8.1;;;;;;;10.38;52.15918;936.8194;;;;
2020/03/28 06:22:46;;;;;;;19.7;8.2;;;;;;;10.55;51.46094;936.8161;;;;
2020/03/28 06:25:11;;;;;;;15.6;9;;;;;;;10.61;51.37598;936.8292;;;;
2020/03/28 06:27:37;;;;;;;12.4;8.8;;;;;;;10.64;51.35645;936.8003;;;;
2020/03/28 06:30:02;;;;;;;18.1;10.4;;;;;;;10.25;52.23535;936.7793;;;;
2020/03/28 06:32:27;;;;;;;17.8;10.3;;;;;;;10.84;51.00391;936.7762;;;;
2020/03/28 06:34:52;;;;;;;16.7;8.5;;;;;;;11.69;49.5127;936.7459;;;;
2020/03/28 06:37:17;;;;;;;12.3;7;;;;;;;12.78;46.08008;936.7722;;;;
2020/03/28 06:39:42;;;;;;;11.1;6.2;;;;;;;13.07;45.6748;936.7194;;;;
2020/03/28 06:42:07;;;;;;;10.2;5.9;;;;;;;12.87;44.80371;936.634;;;;
2020/03/28 06:44:32;;;;;;;10.2;5.7;;;;;;;11.75;47.14941;936.7453;;;;
2020/03/28 06:46:58;;;;;;;13.6;7.5;;;;;;;11.81;47.87695;936.7122;;;;
2020/03/28 06:49:23;;;;;;;11.1;5.1;;;;;;;12.07;47.01172;936.6956;;;;
2020/03/28 06:51:48;;;;;;;10.4;5.4;;;;;;;11.98;47.51953;936.6976;;;;
2020/03/28 06:54:13;;;;;;;8.9;5.3;;;;;;;11.51;48.55371;936.6726;;;;
2020/03/28 06:56:38;;;;;;;11;5.4;;;;;;;11.2;49.38867;936.7418;;;;
2020/03/28 06:59:03;;;;;;;11.2;6;;;;;;;11.16;49.79492;936.6922;;;;
2020/03/28 07:01:28;;;;;;;12.2;5.7;;;;;;;11.61;48.97656;936.6685;;;;
2020/03/28 07:03:53;;;;;;;11.6;6.1;;;;;;;12.16;47.75586;936.6614;;;;
2020/03/28 07:06:18;;;;;;;11.9;5.8;;;;;;;12.59;46.59863;936.6588;;;;
2020/03/28 07:08:43;;;;;;;11.4;5.7;;;;;;;12.77;45.66504;936.5941;;;;
2020/03/28 07:11:08;;;;;;;15.3;7;;;;;;;12.21;47.29199;936.647;;;;
2020/03/28 07:13:34;;;;;;;12.2;5.6;;;;;;;11.92;47.54688;936.5811;;;;
2020/03/28 07:15:59;;;;;;;14.4;5.3;;;;;;;12.08;47.51855;936.5839;;;;
2020/03/28 07:18:24;;;;;;;12.3;5.3;;;;;;;12.72;46.07422;936.6469;;;;
2020/03/28 07:20:49;;;;;;;11.1;5.4;;;;;;;12.76;45.68652;936.6069;;;;
2020/03/28 07:23:14;;;;;;;12.1;5.1;;;;;;;12.7;45.80664;936.5591;;;;
2020/03/28 07:25:39;;;;;;;10.2;5.3;;;;;;;11.98;47.3125;936.5013;;;;
2020/03/28 07:28:04;;;;;;;15.3;6.3;;;;;;;12.86;46.09863;936.5087;;;;
2020/03/28 07:30:29;;;;;;;10;5.8;;;;;;;12.81;45.53125;936.4965;;;;
2020/03/28 07:32:54;;;;;;;12.9;6.2;;;;;;;13.13;45.24414;936.5497;;;;
2020/03/28 07:35:19;;;;;;;15.7;8.1;;;;;;;13.31;44.49316;936.5114;;;;
2020/03/28 07:37:44;;;;;;;13.7;5.9;;;;;;;13.93;42.81934;936.4817;;;;
2020/03/28 07:40:10;;;;;;;11.9;6.4;;;;;;;13.58;43.86523;936.4672;;;;
2020/03/28 07:42:35;;;;;;;11;6.3;;;;;;;15.05;41.55566;936.3821;;;;
2020/03/28 07:45:00;;;;;;;11.1;4.8;;;;;;;16.03;37.84473;936.4357;;;;
2020/03/28 07:47:25;;;;;;;10.5;4.6;;;;;;;16.69;37.09082;936.462;;;;
2020/03/28 07:49:50;;;;;;;13.6;4.6;;;;;;;17.88;34.74219;936.4023;;;;
2020/03/28 07:52:15;;;;;;;10;4.3;;;;;;;17.98;33.99512;936.363;;;;
2020/03/28 07:54:40;;;;;;;10.5;4.6;;;;;;;19.05;33.79785;936.3562;;;;
2020/03/28 07:57:06;;;;;;;8.8;4.3;;;;;;;20.63;31.65234;936.3608;;;;
2020/03/28 07:59:31;;;;;;;9.3;3.8;;;;;;;20.49;29.87891;936.368;;;;
2020/03/28 08:01:56;;;;;;;10.2;4;;;;;;;21.34;29.2334;936.3759;;;;
2020/03/28 08:04:21;;;;;;;10.7;3.8;;;;;;;19.82;32.06055;936.3969;;;;
2020/03/28 08:06:46;;;;;;;10.4;3.7;;;;;;;22.28;28.42676;936.3876;;;;
2020/03/28 08:09:11;;;;;;;8.9;3.6;;;;;;;23.25;27.29102;936.3887;;;;
2020/03/28 08:11:36;;;;;;;10.2;3.8;;;;;;;23.02;27.05273;936.3738;;;;
2020/03/28 08:14:01;;;;;;;9.5;3.4;;;;;;;23.71;25.69434;936.3871;;;;
2020/03/28 08:16:26;;;;;;;10.9;3.6;;;;;;;24.46;25.06641;936.3167;;;;
2020/03/28 08:18:51;;;;;;;9.2;3.5;;;;;;;25.22;24.22461;936.3833;;;;
2020/03/28 08:21:17;;;;;;;11.4;3.9;;;;;;;25.73;24.08594;936.3297;;;;
2020/03/28 08:23:42;;;;;;;11.2;3.9;;;;;;;25.57;24.18359;936.3196;;;;
2020/03/28 08:26:09;;;;;;;10.8;4.1;;;;;;;25.25;24.46191;936.2957;;;;
2020/03/28 08:28:32;;;;;;;8.4;3.6;;;;;;;24.37;25.62695;936.2898;;;;
2020/03/28 08:30:57;;;;;;;10.5;4.3;;;;;;;24.7;25.30469;936.2678;;;;
2020/03/28 08:33:22;;;;;;;11.1;4.3;;;;;;;25.14;24.82129;936.2661;;;;
2020/03/28 08:35:47;;;;;;;10.6;3.9;;;;;;;25.04;24.54492;936.2302;;;;
2020/03/28 08:38:12;;;;;;;13.6;5;;;;;;;25.08;24.9248;936.278;;;;
2020/03/28 08:40:38;;;;;;;8;4.3;;;;;;;25.12;24.72656;936.244;;;;
2020/03/28 08:43:03;;;;;;;11.5;4;;;;;;;25.68;24.03711;936.258;;;;
2020/03/28 08:45:27;;;;;;;11.8;3.9;;;;;;;26.55;22.65039;936.2363;;;;
2020/03/28 08:47:53;;;;;;;9.4;4.1;;;;;;;26.19;22.97461;936.2562;;;;
2020/03/28 08:50:18;;;;;;;8.2;4;;;;;;;25.07;24.09766;936.2736;;;;
2020/03/28 08:52:43;;;;;;;12.4;5;;;;;;;25.55;23.65137;936.217;;;;
2020/03/28 08:55:08;;;;;;;14.1;6.1;;;;;;;23.96;26.03906;936.1611;;;;
2020/03/28 08:57:33;;;;;;;15.8;7.1;;;;;;;23.42;26.45508;936.1199;;;;
2020/03/28 08:59:58;;;;;;;15.6;7.9;;;;;;;23.95;26.95703;936.1121;;;;
2020/03/28 09:02:23;;;;;;;19.1;9.1;;;;;;;24.29;25.77539;936.0795;;;;
2020/03/28 09:04:48;;;;;;;13.2;8.1;;;;;;;23.77;26.49902;936.0313;;;;
2020/03/28 09:07:13;;;;;;;16.2;9.2;;;;;;;24.6;25.86523;936.1601;;;;
2020/03/28 09:09:38;;;;;;;20;12.1;;;;;;;23.36;27.33301;936.1216;;;;
2020/03/28 09:12:07;;;;;;;20;11.3;;;;;;;22.85;27.99414;936.0787;;;;
2020/03/28 09:14:31;;;;;;;20.2;11.5;;;;;;;23.55;26.82715;936.0969;;;;
2020/03/28 09:16:56;;;;;;;19.5;11.9;;;;;;;23.84;25.99707;936.0344;;;;
2020/03/28 09:19:21;;;;;;;18.6;11;;;;;;;23.74;26.79102;936.0499;;;;
2020/03/28 09:21:46;;;;;;;20.3;12.3;;;;;;;22.2;29.23145;936.0368;;;;
2020/03/28 09:24:12;;;;;;;19.3;11.9;;;;;;;23.25;27.62012;935.9634;;;;
2020/03/28 09:26:37;;;;;;;22.2;12.4;;;;;;;22.67;29.41504;935.9864;;;;
2020/03/28 09:29:02;;;;;;;23.4;12.2;;;;;;;23.57;27.04004;935.9325;;;;
2020/03/28 09:31:27;;;;;;;18.9;13;;;;;;;23.79;26.55859;935.9272;;;;
2020/03/28 09:33:52;;;;;;;20.5;12.4;;;;;;;22.81;28.66113;935.9001;;;;
2020/03/28 09:36:17;;;;;;;20.5;13.9;;;;;;;21.18;31.86719;935.9661;;;;
2020/03/28 09:38:42;;;;;;;21.9;13.8;;;;;;;20.45;33.75293;935.9381;;;;
2020/03/28 09:41:07;;;;;;;23;12.9;;;;;;;20.45;33.56543;935.8849;;;;
2020/03/28 09:43:32;;;;;;;19.1;12.6;;;;;;;20.8;32.4707;935.9512;;;;
2020/03/28 09:45:58;;;;;;;23.4;12.9;;;;;;;21.56;32.25781;935.9515;;;;
2020/03/28 09:48:23;;;;;;;23.2;12.7;;;;;;;21.46;31.59473;935.8577;;;;
2020/03/28 09:50:48;;;;;;;19.3;14;;;;;;;19.73;34.87598;935.8112;;;;
2020/03/28 09:53:13;;;;;;;22.8;14.4;;;;;;;19.6;35.28516;935.8219;;;;
2020/03/28 09:55:38;;;;;;;24.5;15.5;;;;;;;19.57;35.83105;935.7089;;;;
2020/03/28 09:58:03;;;;;;;23.7;14.1;;;;;;;19.62;35.68262;935.79;;;;
2020/03/28 10:00:28;;;;;;;23.7;15.1;;;;;;;20.8;33.10156;935.8089;;;;
2020/03/28 10:02:53;;;;;;;24.3;14.2;;;;;;;20.89;32.52441;935.7379;;;;
2020/03/28 10:05:18;;;;;;;21.2;14.3;;;;;;;20.08;34.06348;935.6813;;;;
2020/03/28 10:07:44;;;;;;;25.9;15.2;;;;;;;19.43;35.44629;935.6456;;;;
2020/03/28 10:10:09;;;;;;;20.5;15.1;;;;;;;19.84;35.33984;935.7264;;;;
2020/03/28 10:12:34;;;;;;;20.5;14.7;;;;;;;20.3;34.60645;935.6495;;;;
2020/03/28 10:14:59;;;;;;;21.2;14.3;;;;;;;20.2;34.52832;935.4924;;;;
2020/03/28 10:17:24;;;;;;;24.7;14.8;;;;;;;19.86;35.13086;935.54;;;;
2020/03/28 10:19:49;;;;;;;20.5;15.1;;;;;;;19.56;36.78516;935.6042;;;;
2020/03/28 10:22:16;;;;;;;25;14.4;;;;;;;20.2;35.36816;935.5233;;;;
2020/03/28 10:24:39;;;;;;;22.2;14.8;;;;;;;20.57;34.01855;935.5687;;;;
2020/03/28 10:27:04;;;;;;;21.4;14.6;;;;;;;21.07;32.87695;935.502;;;;
2020/03/28 10:29:29;;;;;;;23.4;15;;;;;;;20.3;34.43066;935.4231;;;;
2020/03/28 10:31:54;;;;;;;23.5;15.3;;;;;;;20.03;35.28516;935.4589;;;;
2020/03/28 10:34:23;;;;;;;21.1;14.7;;;;;;;20.08;34.27441;935.4777;;;;
2020/03/28 10:36:45;;;;;;;21;15.3;;;;;;;20.53;34.99707;935.502;;;;
2020/03/28 10:39:10;;;;;;;19.4;14.9;;;;;;;20.82;33.24414;935.4425;;;;
2020/03/28 10:41:35;;;;;;;23;15.2;;;;;;;20.83;33.43164;935.4664;;;;
2020/03/28 10:44:00;;;;;;;24.5;15.6;;;;;;;20.8;34.49316;935.4824;;;;
2020/03/28 10:46:25;;;;;;;21.3;15.1;;;;;;;21.54;32.73535;935.5209;;;;
2020/03/28 10:48:50;;;;;;;24.3;15.8;;;;;;;22.12;31.67676;935.4153;;;;
2020/03/28 10:51:15;;;;;;;21.7;15.2;;;;;;;21.81;32.35742;935.4606;;;;
2020/03/28 10:53:41;;;;;;;25.9;15.8;;;;;;;22.18;31.98535;935.3983;;;;
2020/03/28 10:56:06;;;;;;;22.1;15.7;;;;;;;21.47;32.64746;935.3372;;;;
2020/03/28 10:58:31;;;;;;;22.6;16;;;;;;;20.88;33.87988;935.4045;;;;
2020/03/28 11:00:56;;;;;;;23.7;16.6;;;;;;;20.54;34.33203;935.3942;;;;
2020/03/28 11:03:21;;;;;;;23;16.7;;;;;;;20.24;35.58203;935.4163;;;;
2020/03/28 11:05:46;;;;;;;24.5;16.2;;;;;;;20.79;34.39844;935.4352;;;;
2020/03/28 11:08:11;;;;;;;23.7;16.2;;;;;;;21.74;32.27051;935.3351;;;;
2020/03/28 11:10:36;;;;;;;21.6;16;;;;;;;21.85;32.87598;935.3044;;;;
2020/03/28 11:13:01;;;;;;;27.1;17.2;;;;;;;21.06;33.70605;935.4182;;;;
2020/03/28 11:15:26;;;;;;;21.4;16.6;;;;;;;21.7;33.7666;935.2977;;;;
2020/03/28 11:17:52;;;;;;;23.9;17.5;;;;;;;21.79;32.34473;935.3147;;;;
2020/03/28 11:20:17;;;;;;;24.7;17.2;;;;;;;21.97;32.22852;935.3195;;;;
2020/03/28 11:22:42;;;;;;;25;17.3;;;;;;;22.26;31.11133;935.2673;;;;
2020/03/28 11:25:07;;;;;;;27.8;17.1;;;;;;;21.99;31.93652;935.2667;;;;
2020/03/28 11:27:32;;;;;;;28.4;17.4;;;;;;;22.12;31.99316;935.3057;;;;
2020/03/28 11:29:57;;;;;;;25.3;16.9;;;;;;;22.53;31.54199;935.2475;;;;
2020/03/28 11:32:25;;;;;;;25.7;17.2;;;;;;;21.62;33.40918;935.14;;;;
2020/03/28 11:34:50;;;;;;;26.9;17.2;;;;;;;21.71;32.93555;935.1557;;;;
2020/03/28 11:37:15;;;;;;;28.2;16.8;;;;;;;22.22;31.56641;935.1746;;;;
2020/03/28 11:39:40;;;;;;;26.4;17.6;;;;;;;21.78;32.60059;935.1863;;;;
2020/03/28 11:42:05;;;;;;;26;16.8;;;;;;;21.84;33.13281;935.1599;;;;
2020/03/28 11:44:30;;;;;;;26.2;17.2;;;;;;;22.44;31.38184;935.1387;;;;
2020/03/28 11:46:55;;;;;;;26.8;17.4;;;;;;;21.86;32.60645;935.1121;;;;
2020/03/28 11:49:20;;;;;;;29.6;17.3;;;;;;;21.91;32.30566;935.1158;;;;
2020/03/28 11:51:46;;;;;;;27.1;17.2;;;;;;;22.16;31.75;935.1281;;;;
2020/03/28 11:54:11;;;;;;;28.2;16.9;;;;;;;21.96;32.30957;935.0627;;;;
2020/03/28 11:56:36;;;;;;;30.1;17.5;;;;;;;21.54;33.11035;935.028;;;;
2020/03/28 11:59:01;;;;;;;29.3;17.3;;;;;;;21.37;33.4834;935.082;;;;
2020/03/28 12:01:26;;;;;;;28.1;16.9;;;;;;;22.42;31.8623;934.9711;;;;
2020/03/28 12:03:51;;;;;;;33.9;17.4;;;;;;;23.03;30.49609;934.9863;;;;
2020/03/28 12:06:16;;;;;;;30;17;;;;;;;23.92;29.21484;934.9424;;;;
2020/03/28 12:08:44;;;;;;;29.1;16.7;;;;;;;23.98;29.66699;934.8881;;;;
2020/03/28 12:11:09;;;;;;;34.2;16.7;;;;;;;23.21;30.01465;934.9335;;;;
2020/03/28 12:13:34;;;;;;;28.6;16.5;;;;;;;22.99;31.09277;934.8812;;;;
2020/03/28 12:15:59;;;;;;;36.8;16.9;;;;;;;22.97;31.18457;934.8733;;;;
2020/03/28 12:18:24;;;;;;;30;16.3;;;;;;;24.04;28.58691;934.8353;;;;
2020/03/28 12:20:49;;;;;;;34.2;16.1;;;;;;;24.32;28.73535;934.8065;;;;
2020/03/28 12:23:14;;;;;;;29.9;16.1;;;;;;;22.89;31.27344;934.6699;;;;
2020/03/28 12:25:40;;;;;;;34.7;15.8;;;;;;;22.69;31.03613;934.8621;;;;
2020/03/28 12:28:05;;;;;;;39.6;16;;;;;;;23.01;30.07227;934.8156;;;;
2020/03/28 12:30:30;;;;;;;37.8;16.6;;;;;;;21.98;32.3457;934.8851;;;;
2020/03/28 12:32:55;;;;;;;38.4;16.5;;;;;;;21.14;33.60742;934.868;;;;
2020/03/28 12:35:20;;;;;;;39.4;16.5;;;;;;;21.3;32.84766;934.9129;;;;
2020/03/28 12:37:45;;;;;;;33.5;15.7;;;;;;;23;30.15332;934.8533;;;;
2020/03/28 12:40:10;;;;;;;34.6;16.4;;;;;;;20.98;33.72363;934.7933;;;;
2020/03/28 12:42:35;;;;;;;33.9;17;;;;;;;19.52;36.00098;934.8645;;;;
2020/03/28 12:45:00;;;;;;;41.7;16.7;;;;;;;19.59;36.43945;934.7889;;;;
2020/03/28 12:47:25;;;;;;;39.3;16.8;;;;;;;20.62;34.66602;934.8898;;;;
2020/03/28 12:49:51;;;;;;;40.1;16.6;;;;;;;20.88;33.27148;934.7202;;;;
2020/03/28 12:52:16;;;;;;;37.9;15.9;;;;;;;20.41;34.46289;934.7493;;;;
2020/03/28 12:54:41;;;;;;;39.1;16.1;;;;;;;20.85;33.8418;934.7301;;;;
2020/03/28 12:57:06;;;;;;;42.6;15.5;;;;;;;20.65;34.06055;934.6286;;;;
2020/03/28 12:59:31;;;;;;;45.3;16.2;;;;;;;21.17;34.06543;934.6483;;;;
2020/03/28 13:01:56;;;;;;;40;15.3;;;;;;;20.74;33.86816;934.6189;;;;
2020/03/28 13:04:21;;;;;;;36.4;15.2;;;;;;;20.22;34.24902;934.6332;;;;
2020/03/28 13:06:46;;;;;;;39.9;15.6;;;;;;;20.24;35.55859;934.5981;;;;
2020/03/28 13:09:12;;;;;;;39.9;15.8;;;;;;;20.98;34.4834;934.5772;;;;
2020/03/28 13:11:37;;;;;;;39.5;14.8;;;;;;;21.9;32.76172;934.5602;;;;
2020/03/28 13:14:02;;;;;;;44.8;15.2;;;;;;;21.1;33.93164;934.5083;;;;
2020/03/28 13:16:27;;;;;;;44.6;15.3;;;;;;;20.71;34.07715;934.4903;;;;
2020/03/28 13:18:52;;;;;;;43.3;15.2;;;;;;;20.78;34.16309;934.6086;;;;
2020/03/28 13:21:17;;;;;;;45.2;15.4;;;;;;;20.5;35.28711;934.5442;;;;
2020/03/28 13:23:42;;;;;;;42.8;15;;;;;;;20.19;35.68262;934.5631;;;;
2020/03/28 13:26:07;;;;;;;40;14.9;;;;;;;20.33;35.83496;934.6135;;;;
2020/03/28 13:28:32;;;;;;;45.9;15.2;;;;;;;20.13;35.33984;934.565;;;;
2020/03/28 13:30:58;;;;;;;40.3;14.8;;;;;;;20.67;34.51855;934.584;;;;
2020/03/28 13:33:23;;;;;;;46.1;15.2;;;;;;;20.48;35.58887;934.3914;;;;
2020/03/28 13:35:48;;;;;;;36.3;14.5;;;;;;;20.06;35.59082;934.5213;;;;
2020/03/28 13:38:13;;;;;;;37.4;14.6;;;;;;;19.99;36.14453;934.5215;;;;
2020/03/28 13:40:38;;;;;;;38.2;14.5;;;;;;;20.27;36.09766;934.5695;;;;
2020/03/28 13:43:03;;;;;;;40.9;14;;;;;;;20.01;35.12012;934.5217;;;;
2020/03/28 13:45:29;;;;;;;42;14.8;;;;;;;20.13;35.22266;934.5931;;;;
2020/03/28 13:47:54;;;;;;;36.4;14.3;;;;;;;20.12;35.95703;934.4828;;;;
2020/03/28 13:50:19;;;;;;;35.7;13.9;;;;;;;20;35.36328;934.5376;;;;
2020/03/28 13:52:44;;;;;;;47.9;14.5;;;;;;;20.04;35.25098;934.5711;;;;
2020/03/28 13:55:09;;;;;;;38.4;14.3;;;;;;;19.89;35.25;934.5097;;;;
2020/03/28 13:57:34;;;;;;;40.9;13.4;;;;;;;19.27;36.51758;934.5503;;;;
2020/03/28 14:00:00;;;;;;;44.6;13.3;;;;;;;19.62;35.92773;934.5137;;;;